Time;durP1;ratioP1;P1;durP2;ratioP2;P2;SDS_P1;SDS_P2;PMS_P1;PMS_P2;Temp;Humidity;BMP_temperature;BMP_pressure;BME280_temperature;BME280_humidity;BME280_pressure;Samples;Min_cycle;Max_cycle;Signal;HPM_P1;HPM_P2
2022/10/28 00:01:07;;;;;;;4.03;2.50;;;;;;;11.05;56.88;96035.28;5071379;28;20021;-74
2022/10/28 00:03:35;;;;;;;3.88;2.10;;;;;;;11.07;56.79;96044.66;5046311;28;20037;-74
2022/10/28 00:06:05;;;;;;;3.72;2.30;;;;;;;11.08;56.82;96041.09;5040270;28;20039;-74
2022/10/28 00:08:31;;;;;;;4.20;2.42;;;;;;;11.03;57.06;96040.59;5045763;28;20049;-73
2022/10/28 00:11:04;;;;;;;4.57;2.50;;;;;;;11.03;56.85;96038.00;5032643;28;20279;-74
2022/10/28 00:13:29;;;;;;;4.30;2.50;;;;;;;11.00;57.45;96034.75;5034137;28;20033;-74
2022/10/28 00:15:55;;;;;;;4.88;2.83;;;;;;;10.77;57.50;96012.84;5051018;28;20025;-74
2022/10/28 00:18:20;;;;;;;4.22;3.00;;;;;;;10.94;57.41;96046.38;5051142;28;20106;-73
2022/10/28 00:20:46;;;;;;;5.32;3.55;;;;;;;10.79;57.80;96048.22;5050041;28;20067;-74
2022/10/28 00:23:11;;;;;;;6.28;3.75;;;;;;;10.82;57.86;96045.41;5051922;28;20033;-73
2022/10/28 00:25:37;;;;;;;5.47;4.22;;;;;;;10.90;57.77;96039.72;5052211;28;20040;-74
2022/10/28 00:28:02;;;;;;;8.48;4.60;;;;;;;10.68;58.02;96046.28;5067569;28;20098;-73
2022/10/28 00:30:28;;;;;;;7.20;4.18;;;;;;;10.71;58.02;96042.66;5050857;28;20506;-73
2022/10/28 00:32:53;;;;;;;8.27;4.50;;;;;;;10.57;58.34;96042.72;5052354;28;20029;-73
2022/10/28 00:35:18;;;;;;;6.65;4.40;;;;;;;10.51;58.36;96039.56;5051978;28;20154;-73
2022/10/28 00:37:44;;;;;;;9.73;5.03;;;;;;;10.43;58.68;96035.78;5050763;28;20029;-73
2022/10/28 00:40:10;;;;;;;5.55;3.50;;;;;;;10.29;58.83;96027.09;5051896;28;20033;-74
2022/10/28 00:42:35;;;;;;;6.75;4.10;;;;;;;10.13;59.63;96038.50;5050625;28;20045;-73
2022/10/28 00:45:01;;;;;;;6.90;4.63;;;;;;;9.93;60.12;96026.75;5050594;28;20025;-74
2022/10/28 00:47:29;;;;;;;10.35;4.95;;;;;;;9.91;60.33;96026.81;5050605;28;20044;-74
2022/10/28 00:50:18;;;;;;;8.65;4.72;;;;;;;9.87;60.36;96032.31;5050859;28;20048;-73
2022/10/28 00:52:45;;;;;;;7.05;4.13;;;;;;;9.80;60.84;96032.66;5050604;28;20037;-74
2022/10/28 00:55:10;;;;;;;6.93;4.15;;;;;;;9.67;61.00;96018.78;5050422;28;20083;-74
2022/10/28 00:57:36;;;;;;;6.72;4.65;;;;;;;9.66;60.59;96022.28;5033869;28;20063;-74
2022/10/28 01:00:03;;;;;;;5.93;4.22;;;;;;;9.57;61.08;96036.63;5050172;28;20056;-73
2022/10/28 01:02:29;;;;;;;7.85;4.70;;;;;;;9.46;61.28;96035.59;5051547;28;20508;-74
2022/10/28 01:04:54;;;;;;;6.97;4.10;;;;;;;9.29;62.01;96026.22;5033856;28;20025;-73
2022/10/28 01:07:19;;;;;;;6.38;4.43;;;;;;;9.24;62.44;96034.25;5033550;28;20513;-73
2022/10/28 01:09:45;;;;;;;9.32;4.43;;;;;;;9.09;62.72;96037.75;5033745;28;20048;-74
2022/10/28 01:12:15;;;;;;;8.52;4.47;;;;;;;9.21;62.37;96046.59;5069860;28;20036;-74
2022/10/28 01:15:15;;;;;;;5.95;3.65;;;;;;;9.26;62.93;96045.38;5051881;28;20531;-73
2022/10/28 01:18:09;;;;;;;5.45;2.95;;;;;;;9.22;62.85;96040.47;5053351;28;20029;-73
2022/10/28 01:21:03;;;;;;;7.00;3.60;;;;;;;9.21;63.17;96034.44;5053157;28;20414;-74
2022/10/28 01:23:38;;;;;;;6.65;3.60;;;;;;;9.21;63.14;96036.22;5071562;28;20036;-73
2022/10/28 01:26:38;;;;;;;5.32;3.53;;;;;;;9.18;63.11;96034.63;5069933;28;20052;-74
2022/10/28 01:29:09;;;;;;;4.63;3.35;;;;;;;9.18;63.77;96037.22;5069662;28;20049;-73
2022/10/28 01:31:54;;;;;;;6.50;3.63;;;;;;;9.09;64.17;96022.22;5071142;28;20028;-73
2022/10/28 01:34:32;;;;;;;6.93;3.15;;;;;;;9.37;63.79;96039.59;5069776;28;20482;-74
2022/10/28 01:37:09;;;;;;;6.15;3.65;;;;;;;9.31;63.78;96040.78;5053317;28;20037;-73
2022/10/28 01:39:40;;;;;;;7.82;3.28;;;;;;;9.31;63.81;96043.38;5070856;28;20038;-74
2022/10/28 01:42:37;;;;;;;5.68;3.70;;;;;;;9.27;64.27;96041.88;5069466;28;20032;-73
2022/10/28 01:45:26;;;;;;;6.93;3.90;;;;;;;9.28;63.76;96035.78;5052259;28;20513;-74
2022/10/28 01:47:57;;;;;;;7.60;3.65;;;;;;;9.32;64.09;96044.19;5055093;28;20680;-73
2022/10/28 01:50:24;;;;;;;;;;;;;;;9.27;63.86;96044.47;5070027;28;20033;-74
2022/10/28 01:52:50;;;;;;;6.53;3.80;;;;;;;9.21;63.77;96044.81;5052888;28;20499;-74
2022/10/28 01:55:20;;;;;;;5.40;3.50;;;;;;;9.14;64.40;96043.53;5052906;28;20032;-74
2022/10/28 01:57:46;;;;;;;6.13;4.10;;;;;;;9.25;64.19;96045.47;5053236;28;20430;-74
2022/10/28 02:00:12;;;;;;;6.47;3.67;;;;;;;9.01;64.69;96047.72;5052715;28;20028;-74
2022/10/28 02:02:38;;;;;;;7.70;4.30;;;;;;;9.25;64.36;96055.84;5052843;28;20037;-74
2022/10/28 02:05:34;;;;;;;6.32;3.78;;;;;;;9.34;63.68;96060.50;5069575;28;20036;-74
2022/10/28 02:08:17;;;;;;;5.95;3.70;;;;;;;9.33;63.59;96054.50;5066826;28;20041;-74
2022/10/28 02:10:49;;;;;;;5.63;3.38;;;;;;;9.50;63.45;96056.09;5034949;28;20035;-74
2022/10/28 02:13:14;;;;;;;6.68;3.65;;;;;;;9.49;63.09;96057.00;5049491;28;20033;-74
2022/10/28 02:15:47;;;;;;;5.43;3.60;;;;;;;9.49;63.18;96051.81;5016252;28;20038;-74
2022/10/28 02:18:21;;;;;;;5.85;4.00;;;;;;;9.58;62.68;96059.06;5032972;28;20033;-74
2022/10/28 02:20:56;;;;;;;6.15;3.97;;;;;;;9.40;62.94;96042.81;5049432;28;20033;-73
2022/10/28 02:24:02;;;;;;;6.75;3.90;;;;;;;9.48;63.11;96050.16;5033510;28;20061;-74
2022/10/28 02:26:33;;;;;;;6.22;4.05;;;;;;;9.42;63.21;96041.88;5050394;28;20096;-74
2022/10/28 02:29:19;;;;;;;6.07;3.75;;;;;;;9.37;63.50;96042.19;5032481;28;20040;-73
2022/10/28 02:31:54;;;;;;;5.60;3.72;;;;;;;9.39;63.28;96043.75;5032615;28;20044;-73
2022/10/28 02:34:22;;;;;;;5.68;3.90;;;;;;;9.24;63.68;96042.03;5032662;28;20497;-73
2022/10/28 02:36:49;;;;;;;6.68;3.88;;;;;;;9.14;64.11;96039.16;5049183;28;20037;-73
2022/10/28 02:39:15;;;;;;;5.40;3.88;;;;;;;9.11;64.43;96038.47;5032470;28;20025;-74
2022/10/28 02:41:53;;;;;;;9.57;4.03;;;;;;;9.13;64.34;96047.00;5016234;28;20029;-74
2022/10/28 02:44:30;;;;;;;6.05;4.00;;;;;;;9.00;64.49;96043.44;5034022;28;20025;-74
2022/10/28 02:46:58;;;;;;;5.47;3.75;;;;;;;8.93;64.85;96055.94;5036591;28;20044;-74
2022/10/28 02:49:23;;;;;;;6.80;3.92;;;;;;;8.89;65.39;96050.09;5052824;28;20513;-73
2022/10/28 02:51:51;;;;;;;6.60;3.90;;;;;;;8.93;65.30;96053.34;5036199;28;20041;-73
2022/10/28 02:54:25;;;;;;;5.93;4.20;;;;;;;8.91;65.30;96048.25;5019728;28;20450;-74
2022/10/28 02:56:54;;;;;;;6.60;4.25;;;;;;;8.83;65.73;96045.25;5036622;28;20480;-73
2022/10/28 02:59:20;;;;;;;7.13;3.78;;;;;;;8.91;65.40;96044.81;5036136;28;20029;-74
2022/10/28 03:01:45;;;;;;;5.55;3.95;;;;;;;8.98;65.11;96056.50;5035941;28;20079;-74
2022/10/28 03:04:11;;;;;;;5.30;3.70;;;;;;;8.84;65.14;96035.72;5053666;28;20032;-74
2022/10/28 03:06:36;;;;;;;6.22;3.75;;;;;;;8.88;65.31;96053.59;5035820;28;20094;-73
2022/10/28 03:09:01;;;;;;;6.53;3.63;;;;;;;8.82;65.66;96046.16;5064344;28;20051;-74
2022/10/28 03:11:27;;;;;;;5.13;3.40;;;;;;;8.92;65.39;96064.63;5072368;28;20036;-73
2022/10/28 03:13:52;;;;;;;5.88;3.75;;;;;;;8.91;65.32;96058.63;5055653;28;20033;-74
2022/10/28 03:16:18;;;;;;;7.22;4.05;;;;;;;8.91;65.45;96043.09;5072203;28;20043;-73
2022/10/28 03:18:43;;;;;;;5.97;3.97;;;;;;;9.02;65.00;96054.56;5072159;28;20020;-74
2022/10/28 03:21:09;;;;;;;5.15;3.92;;;;;;;9.02;65.16;96051.97;5072466;28;20032;-74
2022/10/28 03:23:34;;;;;;;5.63;3.88;;;;;;;8.95;65.40;96049.75;5073874;28;20033;-73
2022/10/28 03:26:00;;;;;;;6.25;4.15;;;;;;;8.87;65.63;96048.50;5072143;28;20035;-73
2022/10/28 03:28:25;;;;;;;7.35;3.70;;;;;;;8.82;65.82;96053.13;5071858;28;20039;-74
2022/10/28 03:30:51;;;;;;;7.47;3.95;;;;;;;8.82;65.77;96047.94;5072091;28;20028;-73
2022/10/28 03:33:16;;;;;;;6.60;3.72;;;;;;;8.90;65.12;96059.53;5072132;28;20123;-73
2022/10/28 03:35:41;;;;;;;5.60;3.88;;;;;;;8.96;64.93;96055.75;5071958;28;20017;-73
2022/10/28 03:38:07;;;;;;;6.88;3.85;;;;;;;8.94;64.69;96055.88;5073373;28;20036;-73
2022/10/28 03:40:33;;;;;;;6.30;3.88;;;;;;;9.01;64.85;96060.69;5073096;28;20036;-74
2022/10/28 03:42:58;;;;;;;4.80;3.47;;;;;;;8.96;64.82;96063.53;5071976;28;20081;-74
2022/10/28 03:45:24;;;;;;;5.30;3.60;;;;;;;9.02;64.61;96059.75;5073008;28;20055;-74
2022/10/28 03:47:49;;;;;;;5.88;3.70;;;;;;;8.97;64.71;96061.78;5071794;28;20033;-74
2022/10/28 03:50:15;;;;;;;5.85;3.60;;;;;;;9.02;64.46;96062.34;5055045;28;20078;-74
2022/10/28 03:52:42;;;;;;;6.72;3.40;;;;;;;9.02;64.55;96064.94;5071766;28;20474;-74
2022/10/28 03:55:08;;;;;;;5.70;3.88;;;;;;;8.88;64.74;96061.38;5071614;28;20032;-74
2022/10/28 03:57:33;;;;;;;5.20;3.38;;;;;;;8.91;64.71;96057.78;5070384;28;20044;-74
2022/10/28 03:59:59;;;;;;;5.30;3.40;;;;;;;8.97;64.74;96062.63;5072680;28;20028;-74
2022/10/28 04:02:25;;;;;;;5.50;3.50;;;;;;;8.82;64.82;96059.13;5071428;28;20439;-73
2022/10/28 04:04:50;;;;;;;6.65;3.45;;;;;;;8.82;65.20;96056.53;5072589;28;20035;-73
2022/10/28 04:07:16;;;;;;;6.63;3.50;;;;;;;8.72;64.86;96029.50;5088091;28;20482;-73
2022/10/28 04:09:41;;;;;;;8.25;3.80;;;;;;;8.82;64.88;96063.47;5055915;28;20053;-74
2022/10/28 04:12:08;;;;;;;6.90;3.55;;;;;;;8.75;65.38;96063.00;5034411;28;20098;-74
2022/10/28 04:14:34;;;;;;;6.80;3.83;;;;;;;8.71;65.29;96043.34;5034451;28;20443;-74
2022/10/28 04:16:59;;;;;;;5.72;3.60;;;;;;;8.82;65.15;96059.13;5051016;28;20114;-74
2022/10/28 04:19:25;;;;;;;7.10;3.55;;;;;;;8.79;65.02;96059.31;5051258;28;20064;-74
2022/10/28 04:21:51;;;;;;;7.57;3.13;;;;;;;8.77;65.03;96061.13;5052367;28;20410;-75
2022/10/28 04:24:16;;;;;;;5.10;3.55;;;;;;;8.68;65.51;96066.84;5050978;28;20406;-74
2022/10/28 04:26:42;;;;;;;5.32;3.35;;;;;;;8.67;65.26;96071.19;5051004;28;20025;-73
2022/10/28 04:29:07;;;;;;;6.20;3.72;;;;;;;8.67;65.45;96070.34;5051045;28;20028;-74
2022/10/28 04:31:33;;;;;;;5.82;3.60;;;;;;;8.56;65.75;96058.00;5052127;28;20103;-74
2022/10/28 04:33:58;;;;;;;5.75;3.60;;;;;;;8.66;65.93;96063.47;5050806;28;20025;-74
2022/10/28 04:36:23;;;;;;;5.68;3.28;;;;;;;8.70;65.76;96065.84;5052002;28;20028;-74
2022/10/28 04:38:50;;;;;;;9.48;3.42;;;;;;;8.70;65.57;96059.81;5050619;28;20033;-74
2022/10/28 04:41:16;;;;;;;5.78;3.35;;;;;;;8.71;65.75;96061.47;5050855;28;20096;-74
2022/10/28 04:43:41;;;;;;;5.80;3.67;;;;;;;8.66;66.05;96056.56;5051854;28;20426;-74
2022/10/28 04:46:07;;;;;;;4.90;3.22;;;;;;;8.67;65.70;96066.00;5052033;28;20474;-74
2022/10/28 04:48:33;;;;;;;4.47;3.30;;;;;;;8.74;65.55;96050.94;5050661;28;20403;-73
2022/10/28 04:50:58;;;;;;;5.90;3.72;;;;;;;8.56;65.80;96052.00;5017468;28;20084;-73
2022/10/28 04:53:23;;;;;;;5.93;3.70;;;;;;;8.67;65.67;96058.22;5050608;28;20391;-74
2022/10/28 04:55:49;;;;;;;5.32;3.63;;;;;;;8.53;66.25;96058.16;5051692;28;20025;-72
2022/10/28 04:58:14;;;;;;;5.00;3.42;;;;;;;8.62;66.12;96059.41;5050459;28;20102;-73
2022/10/28 05:00:40;;;;;;;6.18;3.67;;;;;;;8.58;66.37;96068.25;5050299;28;20036;-71
2022/10/28 05:03:05;;;;;;;5.63;3.25;;;;;;;8.61;66.09;96058.59;5033805;28;20040;-72
2022/10/28 05:05:31;;;;;;;5.82;3.30;;;;;;;8.59;66.38;96054.41;5050344;28;20033;-73
2022/10/28 05:07:56;;;;;;;5.50;3.28;;;;;;;8.55;65.92;96050.28;5035203;28;20037;-72
2022/10/28 05:10:22;;;;;;;5.32;3.25;;;;;;;8.60;65.92;96071.59;5053514;28;20082;-72
2022/10/28 05:12:47;;;;;;;5.15;3.40;;;;;;;8.52;66.28;96066.00;5070131;28;20056;-71
2022/10/28 05:15:13;;;;;;;6.47;3.65;;;;;;;8.56;66.04;96067.53;5070023;28;20039;-71
2022/10/28 05:17:39;;;;;;;6.55;3.65;;;;;;;8.49;66.28;96070.44;5063906;28;20033;-71
2022/10/28 05:20:06;;;;;;;5.93;3.55;;;;;;;8.50;66.12;96064.34;5058225;28;20040;-71
2022/10/28 05:22:31;;;;;;;4.93;3.33;;;;;;;8.56;65.95;96070.94;5047518;28;20100;-71
2022/10/28 05:24:56;;;;;;;6.45;3.70;;;;;;;8.57;65.85;96079.53;5071183;28;20025;-71
2022/10/28 05:27:22;;;;;;;5.47;3.15;;;;;;;8.57;65.97;96082.13;5069955;28;20036;-71
2022/10/28 05:29:47;;;;;;;6.38;3.60;;;;;;;8.56;65.98;96083.06;5070934;28;20435;-71
2022/10/28 05:32:13;;;;;;;5.90;3.22;;;;;;;8.56;65.76;96090.84;5071105;28;20033;-71
2022/10/28 05:34:38;;;;;;;6.40;3.85;;;;;;;8.59;65.85;96088.06;5069821;28;20021;-71
2022/10/28 05:37:04;;;;;;;4.22;3.28;;;;;;;8.60;65.63;96098.34;5070784;28;20032;-71
2022/10/28 05:39:29;;;;;;;5.88;3.45;;;;;;;8.70;65.44;96102.09;5070668;28;20033;-71
2022/10/28 05:41:55;;;;;;;5.30;3.30;;;;;;;8.67;65.60;96085.91;5070964;28;20047;-71
2022/10/28 05:44:20;;;;;;;6.03;3.20;;;;;;;8.70;65.40;96088.31;5070724;28;20039;-71
2022/10/28 05:46:45;;;;;;;6.05;3.45;;;;;;;8.69;65.20;96099.59;5069629;28;20051;-71
2022/10/28 05:49:11;;;;;;;6.60;3.30;;;;;;;8.70;65.31;96093.50;5070725;28;20032;-71
2022/10/28 05:51:36;;;;;;;7.30;3.28;;;;;;;8.57;65.57;96079.53;5070898;28;20029;-71
2022/10/28 05:54:02;;;;;;;6.38;3.92;;;;;;;8.64;65.50;96092.09;5069515;28;20040;-70
2022/10/28 05:56:27;;;;;;;9.30;5.20;;;;;;;8.53;65.16;96102.19;5070808;28;20094;-71
2022/10/28 05:58:53;;;;;;;13.75;5.85;;;;;;;8.47;65.45;96107.72;5069351;28;20422;-71
2022/10/28 06:01:18;;;;;;;17.63;6.07;;;;;;;8.30;66.14;96111.16;5086200;28;20025;-71
2022/10/28 06:03:43;;;;;;;14.43;5.57;;;;;;;8.40;65.78;96107.19;5070605;28;20032;-70
2022/10/28 06:06:09;;;;;;;10.52;5.40;;;;;;;8.30;66.08;96108.56;5070680;28;20029;-71
2022/10/28 06:08:35;;;;;;;11.95;7.13;;;;;;;8.22;65.99;96115.94;5052745;28;20052;-70
2022/10/28 06:11:00;;;;;;;12.77;6.55;;;;;;;8.03;66.68;96116.88;5086114;28;20052;-71
2022/10/28 06:13:26;;;;;;;10.05;6.18;;;;;;;8.07;67.13;96130.47;5052897;28;20028;-70
2022/10/28 06:15:55;;;;;;;10.20;5.20;;;;;;;8.12;66.97;96125.06;5070343;28;20058;-73
2022/10/28 06:18:21;;;;;;;9.75;4.55;;;;;;;8.00;67.15;96127.38;5051890;28;20624;-73
2022/10/28 06:20:56;;;;;;;7.63;4.57;;;;;;;8.09;67.17;96135.59;5048433;28;20116;-73
2022/10/28 06:23:22;;;;;;;9.82;4.20;;;;;;;7.93;67.40;96120.00;5057012;28;20028;-74
2022/10/28 06:25:47;;;;;;;9.18;5.32;;;;;;;7.99;67.45;96133.47;5053003;28;20719;-73
2022/10/28 06:28:13;;;;;;;7.53;3.53;;;;;;;7.99;67.21;96133.47;5056592;28;20462;-73
2022/10/28 06:30:38;;;;;;;7.53;3.55;;;;;;;8.02;67.72;96141.09;5073106;28;20028;-73
2022/10/28 06:33:04;;;;;;;6.72;3.83;;;;;;;8.05;67.67;96146.09;5071452;28;20036;-73
2022/10/28 06:35:29;;;;;;;6.10;3.65;;;;;;;8.14;67.16;96138.78;5071226;28;20032;-73
2022/10/28 06:37:55;;;;;;;9.45;3.85;;;;;;;8.54;66.17;96139.28;5062532;28;20040;-74
2022/10/28 06:40:21;;;;;;;8.52;4.18;;;;;;;9.06;64.57;96128.66;5036366;28;20039;-73
2022/10/28 06:42:46;;;;;;;6.30;3.50;;;;;;;9.44;63.56;96136.84;5051250;28;20029;-73
2022/10/28 06:45:12;;;;;;;7.57;3.60;;;;;;;9.81;62.28;96143.34;5071097;28;20036;-73
2022/10/28 06:47:37;;;;;;;13.63;5.47;;;;;;;10.25;61.52;96132.06;5052789;28;20048;-72
2022/10/28 06:50:03;;;;;;;18.08;5.88;;;;;;;10.36;60.65;96128.00;5053835;28;20028;-72
2022/10/28 06:52:28;;;;;;;10.07;5.20;;;;;;;10.17;61.66;96134.28;5053733;28;20115;-72
2022/10/28 06:54:54;;;;;;;18.50;6.05;;;;;;;10.26;61.31;96117.31;5079294;28;20497;-72
2022/10/28 06:57:19;;;;;;;13.52;7.60;;;;;;;10.16;61.84;96132.59;5066256;28;20024;-72
2022/10/28 06:59:45;;;;;;;10.55;7.85;;;;;;;10.41;61.53;96131.97;5054587;28;20028;-72
2022/10/28 07:02:10;;;;;;;12.32;6.75;;;;;;;10.63;61.07;96130.66;5066097;28;20509;-74
2022/10/28 07:04:36;;;;;;;9.93;5.45;;;;;;;10.75;59.91;96096.09;5054180;28;20494;-74
2022/10/28 07:07:02;;;;;;;11.27;6.30;;;;;;;11.47;58.74;96127.06;5043647;28;20033;-74
2022/10/28 07:09:27;;;;;;;9.02;6.00;;;;;;;12.29;56.60;96125.91;5068197;28;20048;-74
2022/10/28 07:11:52;;;;;;;14.07;6.10;;;;;;;13.24;54.29;96120.94;5072424;28;20036;-74
2022/10/28 07:14:18;;;;;;;11.50;5.93;;;;;;;14.04;51.70;96108.88;5036959;28;21460;-74
2022/10/28 07:16:43;;;;;;;10.38;5.15;;;;;;;15.00;49.15;96117.19;5072956;28;20036;-74
2022/10/28 07:19:09;;;;;;;11.30;5.30;;;;;;;15.48;47.68;96112.38;5072078;28;20036;-74
2022/10/28 07:21:34;;;;;;;9.05;5.43;;;;;;;16.23;45.78;96123.66;5073441;28;20048;-75
2022/10/28 07:24:00;;;;;;;14.38;5.28;;;;;;;17.22;43.70;96108.09;5072091;28;20483;-75
2022/10/28 07:26:25;;;;;;;10.50;5.53;;;;;;;18.15;41.64;96115.41;5073335;28;20029;-74
2022/10/28 07:28:51;;;;;;;9.60;6.07;;;;;;;18.88;39.82;96112.94;5073199;28;20046;-75
2022/10/28 07:31:16;;;;;;;8.57;5.20;;;;;;;19.63;38.11;96108.28;5038424;28;20089;-74
2022/10/28 07:33:42;;;;;;;10.98;5.38;;;;;;;20.30;36.62;96105.16;5071978;28;20024;-75
2022/10/28 07:36:08;;;;;;;12.55;5.00;;;;;;;20.68;35.77;96113.66;5055286;28;20422;-74
2022/10/28 07:38:33;;;;;;;8.45;4.65;;;;;;;20.69;35.44;96105.56;5071923;28;20032;-75
2022/10/28 07:41:05;;;;;;;7.25;5.20;;;;;;;21.53;34.00;96105.66;5055148;28;20134;-75
2022/10/28 07:43:33;;;;;;;10.23;5.60;;;;;;;21.14;33.96;96111.50;5071987;28;20486;-74
2022/10/28 07:45:59;;;;;;;8.73;5.20;;;;;;;21.63;32.91;96095.75;5071741;28;20025;-75
2022/10/28 07:48:25;;;;;;;11.00;5.20;;;;;;;21.77;32.80;96102.22;5073303;28;20051;-72
2022/10/28 07:50:50;;;;;;;10.52;5.60;;;;;;;21.86;32.79;96106.50;5071708;28;20093;-74
2022/10/28 07:53:15;;;;;;;9.05;5.85;;;;;;;21.21;33.70;96104.59;5073217;28;20032;-75
2022/10/28 07:55:41;;;;;;;11.20;5.30;;;;;;;20.15;35.83;96098.81;5071595;28;20029;-75
2022/10/28 07:58:06;;;;;;;8.95;5.18;;;;;;;18.79;38.01;96108.56;5073024;28;20029;-74
2022/10/28 08:00:32;;;;;;;13.85;4.72;;;;;;;18.47;39.34;96108.94;5071411;28;20025;-73
2022/10/28 08:02:57;;;;;;;9.18;5.03;;;;;;;18.08;40.08;96094.13;5072919;28;20508;-74
2022/10/28 08:05:23;;;;;;;8.10;4.93;;;;;;;17.97;40.26;96099.56;5072604;28;20032;-74
2022/10/28 08:07:48;;;;;;;7.18;5.20;;;;;;;17.79;40.52;96111.75;5071097;28;20047;-74
2022/10/28 08:10:14;;;;;;;11.63;4.97;;;;;;;17.83;40.64;96108.72;5072426;28;20101;-74
2022/10/28 08:12:39;;;;;;;9.18;5.03;;;;;;;17.80;40.78;96103.75;5054649;28;20032;-74
2022/10/28 08:15:05;;;;;;;8.02;4.97;;;;;;;17.73;41.14;96104.41;5071194;28;20028;-75
2022/10/28 08:17:30;;;;;;;9.68;5.03;;;;;;;17.71;40.97;96117.66;5054565;28;20025;-74
2022/10/28 08:19:56;;;;;;;8.77;5.15;;;;;;;17.53;41.65;96114.09;5072241;28;20025;-74
2022/10/28 08:22:21;;;;;;;6.93;4.75;;;;;;;17.56;41.15;96109.38;5071075;28;20043;-74
2022/10/28 08:24:47;;;;;;;8.98;4.68;;;;;;;17.39;42.01;96110.06;5070969;28;20025;-76
2022/10/28 08:27:12;;;;;;;10.32;5.00;;;;;;;17.43;41.78;96119.31;5070992;28;20036;-75
2022/10/28 08:29:38;;;;;;;10.70;5.25;;;;;;;17.31;42.13;96094.19;5054243;28;20040;-75
2022/10/28 08:32:04;;;;;;;9.70;4.00;;;;;;;17.37;41.89;96099.69;5072114;28;20032;-75
2022/10/28 08:34:30;;;;;;;7.95;4.55;;;;;;;17.21;42.42;96096.78;5053968;28;20036;-75
2022/10/28 08:36:56;;;;;;;8.52;4.82;;;;;;;17.22;42.54;96108.09;5070719;28;20529;-75
2022/10/28 08:39:21;;;;;;;6.32;4.70;;;;;;;17.39;41.90;96118.78;5070506;28;20081;-75
2022/10/28 08:41:51;;;;;;;9.90;4.47;;;;;;;17.30;42.40;96103.84;5071778;28;20036;-75
2022/10/28 08:44:29;;;;;;;7.65;4.47;;;;;;;17.36;42.24;96113.81;5053979;28;20552;-75
2022/10/28 08:47:03;;;;;;;7.22;4.18;;;;;;;17.39;42.12;96108.28;5071856;28;20040;-74
2022/10/28 08:49:30;;;;;;;14.40;4.75;;;;;;;17.34;42.16;96105.22;5070314;28;20543;-75
2022/10/28 08:52:01;;;;;;;11.20;4.72;;;;;;;17.21;42.73;96104.66;5054048;28;20030;-75
2022/10/28 08:54:35;;;;;;;9.43;5.30;;;;;;;16.95;43.17;96096.47;5071614;28;20025;-75
2022/10/28 08:57:00;;;;;;;8.93;5.00;;;;;;;17.12;42.83;96100.22;5054164;28;20040;-75
2022/10/28 08:59:36;;;;;;;9.80;4.97;;;;;;;17.16;42.77;96099.84;5053587;28;20025;-74
2022/10/28 09:02:21;;;;;;;10.90;5.10;;;;;;;17.36;42.57;96105.94;5053715;28;20036;-75
2022/10/28 09:04:47;;;;;;;7.55;4.72;;;;;;;17.39;42.46;96102.19;5071743;28;20103;-74
2022/10/28 09:07:17;;;;;;;7.80;4.32;;;;;;;17.38;42.43;96095.28;5053580;28;20414;-75
2022/10/28 09:09:43;;;;;;;11.15;4.70;;;;;;;17.32;42.86;96096.66;5053532;28;20040;-74
2022/10/28 09:12:15;;;;;;;11.57;5.88;;;;;;;17.33;42.51;96093.06;5036702;28;20094;-74
2022/10/28 09:15:02;;;;;;;13.52;5.40;;;;;;;17.49;42.44;96089.06;5070301;28;20043;-75
2022/10/28 09:17:36;;;;;;;15.27;6.72;;;;;;;17.14;43.60;96083.38;5071402;28;20032;-74
2022/10/28 09:20:16;;;;;;;15.10;6.78;;;;;;;17.34;42.91;96083.41;5071105;28;20495;-74
2022/10/28 09:22:44;;;;;;;11.90;6.13;;;;;;;17.38;43.12;96076.88;5069958;28;20036;-74
2022/10/28 09:25:22;;;;;;;11.68;5.10;;;;;;;17.43;42.89;96078.13;5071087;28;20537;-74
2022/10/28 09:27:51;;;;;;;10.05;5.05;;;;;;;17.60;42.64;96078.41;5070069;28;20111;-75
2022/10/28 09:30:16;;;;;;;8.05;4.95;;;;;;;17.64;42.64;96064.03;5069776;28;20027;-74
2022/10/28 09:33:19;;;;;;;12.30;4.97;;;;;;;17.75;42.44;96065.69;5071244;28;20028;-74
2022/10/28 09:35:45;;;;;;;10.85;4.53;;;;;;;17.65;42.49;96060.41;5071270;28;20040;-74
2022/10/28 09:38:19;;;;;;;9.80;4.35;;;;;;;17.79;42.35;96062.63;5053165;28;20040;-75
2022/10/28 09:40:51;;;;;;;6.10;4.00;;;;;;;17.84;42.49;96055.16;5053557;28;20036;-75
2022/10/28 09:43:23;;;;;;;11.20;3.97;;;;;;;17.63;42.60;96046.59;5069806;28;20036;-74
2022/10/28 09:45:49;;;;;;;8.40;4.35;;;;;;;17.79;42.75;96046.88;5070910;28;20565;-74
2022/10/28 09:48:26;;;;;;;5.78;3.28;;;;;;;17.84;42.63;96036.75;5069751;28;20066;-73
2022/10/28 09:50:53;;;;;;;7.32;3.45;;;;;;;17.83;42.34;96027.25;5069684;28;20036;-74
2022/10/28 09:53:31;;;;;;;10.68;3.38;;;;;;;17.95;42.51;96022.63;5052979;28;20505;-74
2022/10/28 09:55:56;;;;;;;10.82;4.38;;;;;;;17.86;42.42;96005.91;5068923;28;20032;-73
2022/10/28 09:58:22;;;;;;;5.82;3.40;;;;;;;18.14;42.33;96019.13;5071205;28;20032;-74
2022/10/28 10:00:47;;;;;;;6.57;3.17;;;;;;;18.01;41.74;96016.78;5069469;28;20503;-74
2022/10/28 10:03:14;;;;;;;11.32;3.22;;;;;;;17.96;42.31;96020.81;5053016;28;20438;-74
2022/10/28 10:05:42;;;;;;;6.85;3.58;;;;;;;18.19;42.02;96003.72;5069763;28;20119;-74
2022/10/28 10:08:11;;;;;;;8.48;3.17;;;;;;;18.30;42.04;96008.81;5069318;28;20037;-74
2022/10/28 10:10:59;;;;;;;5.50;3.30;;;;;;;18.26;41.39;96006.59;5053010;28;20025;-74
2022/10/28 10:13:31;;;;;;;4.93;3.05;;;;;;;18.24;41.81;96005.91;5054341;28;20066;-74
2022/10/28 10:15:59;;;;;;;5.53;3.33;;;;;;;18.46;40.99;96000.25;5053158;28;20067;-74
2022/10/28 10:18:31;;;;;;;7.63;3.42;;;;;;;18.66;40.77;96000.16;5069532;28;20041;-74
2022/10/28 10:20:59;;;;;;;5.65;3.08;;;;;;;18.58;41.31;96000.06;5069264;28;20036;-74
2022/10/28 10:23:36;;;;;;;5.53;3.30;;;;;;;18.73;40.69;95994.16;5053214;28;20056;-74
2022/10/28 10:26:02;;;;;;;6.72;2.97;;;;;;;18.43;40.01;95997.09;5052663;28;20517;-74
2022/10/28 10:28:28;;;;;;;4.03;2.70;;;;;;;18.63;39.89;95990.75;5069397;28;20032;-74
2022/10/28 10:30:56;;;;;;;6.85;3.28;;;;;;;18.73;40.08;95981.00;5069254;28;20093;-74
2022/10/28 10:33:23;;;;;;;4.05;2.88;;;;;;;18.86;39.65;95983.28;5052395;28;20033;-74
2022/10/28 10:35:52;;;;;;;4.47;2.97;;;;;;;18.75;39.28;95983.50;5070424;28;20033;-74
2022/10/28 10:38:18;;;;;;;8.43;3.63;;;;;;;18.30;40.63;95974.63;5069338;28;20028;-74
2022/10/28 10:40:48;;;;;;;8.00;3.05;;;;;;;18.60;40.71;95975.25;5069055;28;20036;-74
2022/10/28 10:43:16;;;;;;;4.65;3.20;;;;;;;18.74;40.44;95977.41;5052613;28;20091;-74
2022/10/28 10:45:57;;;;;;;4.35;2.90;;;;;;;18.97;39.95;95979.59;5070324;28;20603;-74
2022/10/28 10:48:22;;;;;;;4.93;2.70;;;;;;;19.01;39.91;95970.44;5070695;28;20038;-74
2022/10/28 10:50:48;;;;;;;4.97;3.70;;;;;;;18.87;39.32;95971.78;5052294;28;20036;-73
2022/10/28 10:53:32;;;;;;;5.18;3.30;;;;;;;18.98;39.62;95962.84;5069245;28;20040;-74
2022/10/28 10:56:07;;;;;;;5.55;2.97;;;;;;;19.05;38.97;95963.88;5070226;28;20091;-74
2022/10/28 10:58:34;;;;;;;5.53;3.10;;;;;;;18.86;39.42;95958.75;5052885;28;20094;-74
2022/10/28 11:01:01;;;;;;;5.60;2.80;;;;;;;19.00;39.37;95963.50;5035664;28;20067;-74
2022/10/28 11:03:30;;;;;;;4.88;2.60;;;;;;;19.08;39.23;95944.31;5052196;28;20161;-73
2022/10/28 11:05:57;;;;;;;6.70;3.15;;;;;;;19.25;39.04;95951.38;5070001;28;20067;-74
2022/10/28 11:08:38;;;;;;;3.70;2.70;;;;;;;19.33;38.68;95954.03;5072422;28;20056;-74
2022/10/28 11:11:17;;;;;;;4.15;2.70;;;;;;;19.32;38.63;95956.84;5072392;28;20039;-74
2022/10/28 11:13:43;;;;;;;5.47;2.92;;;;;;;19.39;38.27;95950.00;5072446;28;20042;-74
2022/10/28 11:16:22;;;;;;;8.88;3.25;;;;;;;19.41;38.35;95946.19;5055963;28;20036;-74
2022/10/28 11:18:49;;;;;;;4.30;2.80;;;;;;;19.34;38.25;95949.63;5072193;28;20033;-74
2022/10/28 11:21:41;;;;;;;5.60;2.80;;;;;;;19.54;38.32;95950.25;5072102;28;20490;-74
2022/10/28 11:24:34;;;;;;;6.50;3.20;;;;;;;19.46;38.07;95951.03;5072142;28;20029;-74
2022/10/28 11:27:18;;;;;;;4.75;3.00;;;;;;;19.61;38.21;95943.38;5071952;28;20037;-74
2022/10/28 11:29:44;;;;;;;6.07;2.90;;;;;;;19.61;38.16;95935.47;5073597;28;20024;-74
2022/10/28 11:32:10;;;;;;;5.75;2.97;;;;;;;19.75;38.05;95937.56;5072039;28;20058;-74
2022/10/28 11:34:45;;;;;;;5.20;2.75;;;;;;;19.84;37.83;95926.06;5073204;28;20025;-74
2022/10/28 11:37:45;;;;;;;6.03;2.97;;;;;;;19.91;36.53;95936.00;5071875;28;20047;-74
2022/10/28 11:40:21;;;;;;;3.63;2.60;;;;;;;19.79;36.99;95932.81;5061240;28;20469;-74
2022/10/28 11:43:01;;;;;;;3.10;2.60;;;;;;;19.72;37.03;95923.84;5055395;28;20048;-74
2022/10/28 11:45:47;;;;;;;5.35;2.70;;;;;;;19.77;37.00;95924.22;5056076;28;20021;-74